createdAt,value
2022-10-04T00:01:44.988Z,6.30
2022-10-04T00:04:27.779Z,5.50
2022-10-04T00:07:15.558Z,6.40
2022-10-04T00:09:51.050Z,5.50
2022-10-04T00:12:22.932Z,5.97
2022-10-04T00:14:51.057Z,6.28
2022-10-04T00:17:24.029Z,6.60
2022-10-04T00:19:52.403Z,5.90
2022-10-04T00:22:31.246Z,7.00
2022-10-04T00:25:08.444Z,6.07
2022-10-04T00:27:39.619Z,5.70
2022-10-04T00:30:07.448Z,6.47
2022-10-04T00:32:41.098Z,5.90
2022-10-04T00:35:29.140Z,5.93
2022-10-04T00:37:58.545Z,6.78
2022-10-04T00:40:32.912Z,7.35
2022-10-04T00:43:04.029Z,7.55
2022-10-04T00:45:39.964Z,6.85
2022-10-04T00:48:31.103Z,6.25
2022-10-04T00:51:05.276Z,5.22
2022-10-04T00:54:05.067Z,6.00
2022-10-04T00:56:36.310Z,5.65
2022-10-04T00:59:04.116Z,5.82
2022-10-04T01:01:34.650Z,5.70
2022-10-04T01:04:04.156Z,5.93
2022-10-04T01:06:32.864Z,4.45
2022-10-04T01:09:05.870Z,5.55
2022-10-04T01:11:39.501Z,5.18
2022-10-04T01:14:15.113Z,4.53
2022-10-04T01:16:42.932Z,5.20
2022-10-04T01:19:22.728Z,4.80
2022-10-04T01:21:59.798Z,4.72
2022-10-04T01:24:34.820Z,2.55
2022-10-04T01:27:02.704Z,4.00
2022-10-04T01:29:32.062Z,4.25
2022-10-04T01:32:00.797Z,4.65
2022-10-04T01:34:30.226Z,4.47
2022-10-04T01:36:59.752Z,5.07
2022-10-04T01:39:28.106Z,4.65
2022-10-04T01:42:11.309Z,4.60
2022-10-04T01:44:39.269Z,4.78
2022-10-04T01:47:15.106Z,5.07
2022-10-04T01:49:45.041Z,4.18
2022-10-04T01:52:22.488Z,5.97
2022-10-04T01:55:03.248Z,4.20
2022-10-04T01:57:43.529Z,3.50
2022-10-04T02:00:12.474Z,2.60
2022-10-04T02:02:51.416Z,2.92
2022-10-04T02:05:27.731Z,3.05
2022-10-04T02:07:56.300Z,2.90
2022-10-04T02:10:25.229Z,3.30
2022-10-04T02:12:54.833Z,2.80
2022-10-04T02:15:26.885Z,3.00
2022-10-04T02:20:25.227Z,3.33
2022-10-04T02:22:56.725Z,3.05
2022-10-04T02:25:24.552Z,3.42
2022-10-04T02:27:55.017Z,3.90
2022-10-04T02:30:23.516Z,4.35
2022-10-04T02:33:00.801Z,4.47
2022-10-04T02:35:36.489Z,4.32
2022-10-04T02:38:08.042Z,4.60
2022-10-04T02:40:40.784Z,5.50
2022-10-04T02:43:14.602Z,5.22
2022-10-04T02:45:48.687Z,5.10
2022-10-04T02:48:19.102Z,5.82
2022-10-04T02:50:49.583Z,4.90
2022-10-04T02:53:20.349Z,5.13
2022-10-04T02:55:48.449Z,5.17
2022-10-04T02:58:18.451Z,4.90
2022-10-04T03:00:50.665Z,5.07
2022-10-04T03:03:27.508Z,5.55
2022-10-04T03:06:02.445Z,5.13
2022-10-04T03:08:33.207Z,5.25
2022-10-04T03:11:04.324Z,4.13
2022-10-04T03:13:33.330Z,4.82
2022-10-04T03:16:02.286Z,5.47
2022-10-04T03:18:31.293Z,6.57
2022-10-04T03:21:02.411Z,5.88
2022-10-04T03:23:33.432Z,6.23
2022-10-04T03:26:04.367Z,5.47
2022-10-04T03:28:32.443Z,5.50
2022-10-04T03:31:00.824Z,5.70
2022-10-04T03:33:30.443Z,5.05
2022-10-04T03:36:00.797Z,5.20
2022-10-04T03:38:29.395Z,22.67
2022-10-04T03:41:00.196Z,16.77
2022-10-04T03:43:34.318Z,18.95
2022-10-04T03:46:03.125Z,12.00
2022-10-04T03:48:33.285Z,36.25
2022-10-04T03:51:02.093Z,14.93
2022-10-04T03:53:35.348Z,33.10
2022-10-04T03:56:04.624Z,71.75
2022-10-04T03:58:33.123Z,13.75
2022-10-04T04:01:20.367Z,15.43
2022-10-04T04:03:58.631Z,23.35
2022-10-04T04:06:27.740Z,41.03
2022-10-04T04:08:58.037Z,12.68
2022-10-04T04:11:28.130Z,9.88
2022-10-04T04:14:06.901Z,16.70
2022-10-04T04:16:35.952Z,20.27
2022-10-04T04:19:05.421Z,19.33
2022-10-04T04:21:34.504Z,8.15
2022-10-04T04:24:10.029Z,7.70
2022-10-04T04:26:39.355Z,7.60
2022-10-04T04:29:11.103Z,10.82
2022-10-04T04:31:43.107Z,7.45
2022-10-04T04:34:25.509Z,5.90
2022-10-04T04:39:40.069Z,12.48
2022-10-04T04:42:12.640Z,34.25
2022-10-04T04:44:47.531Z,94.73
2022-10-04T04:47:33.960Z,53.53
2022-10-04T04:50:29.187Z,10.85
2022-10-04T04:52:57.506Z,102.57
2022-10-04T04:55:44.505Z,77.88
2022-10-04T04:58:21.540Z,24.17
2022-10-04T05:00:56.507Z,24.38
2022-10-04T05:03:25.970Z,19.98
2022-10-04T05:05:57.383Z,17.15
2022-10-04T05:08:29.726Z,6.22
2022-10-04T05:11:02.867Z,14.50
2022-10-04T05:13:38.081Z,204.75
2022-10-04T05:16:06.958Z,10.30
2022-10-04T05:18:35.345Z,55.25
2022-10-04T05:21:06.462Z,24.67
2022-10-04T05:23:35.116Z,8.38
2022-10-04T05:26:04.669Z,10.35
2022-10-04T05:28:34.390Z,6.60
2022-10-04T05:31:19.214Z,6.85
2022-10-04T05:33:57.163Z,5.70
2022-10-04T05:36:36.145Z,6.20
2022-10-04T05:39:08.354Z,13.65
2022-10-04T05:41:43.935Z,297.98
2022-10-04T05:44:26.152Z,258.52
2022-10-04T05:46:56.374Z,31.48
2022-10-04T05:49:26.621Z,227.70
2022-10-04T05:52:03.896Z,346.05
2022-10-04T05:54:35.721Z,172.98
2022-10-04T05:57:04.357Z,156.38
2022-10-04T05:59:46.457Z,20.88
2022-10-04T06:02:40.719Z,22.27
2022-10-04T06:05:30.243Z,19.98
2022-10-04T06:08:02.240Z,6.30
2022-10-04T06:10:50.775Z,8.57
2022-10-04T06:13:38.055Z,11.30
2022-10-04T06:16:09.398Z,6.97
2022-10-04T06:19:04.621Z,7.28
2022-10-04T06:21:35.156Z,6.32
2022-10-04T06:24:06.948Z,6.78
2022-10-04T06:26:44.209Z,4.78
2022-10-04T06:29:15.519Z,4.90
2022-10-04T06:31:57.037Z,3.38
2022-10-04T06:34:35.791Z,3.22
2022-10-04T06:37:10.235Z,3.83
2022-10-04T06:39:44.506Z,4.07
2022-10-04T06:42:27.751Z,4.07
2022-10-04T06:45:06.124Z,4.63
2022-10-04T06:47:43.625Z,2.78
2022-10-04T06:50:12.257Z,3.30
2022-10-04T06:52:49.820Z,3.30
2022-10-04T06:55:46.552Z,3.03
2022-10-04T06:58:48.138Z,3.05
2022-10-04T07:01:19.531Z,3.17
2022-10-04T07:03:54.145Z,3.22
2022-10-04T07:06:25.957Z,3.50
2022-10-04T07:09:02.363Z,3.53
2022-10-04T07:11:34.336Z,3.90
2022-10-04T07:14:05.363Z,3.50
2022-10-04T07:16:44.657Z,3.53
2022-10-04T07:19:24.879Z,3.67
2022-10-04T07:22:08.673Z,3.30
2022-10-04T07:24:56.132Z,3.75
2022-10-04T07:27:35.972Z,3.35
2022-10-04T07:30:08.618Z,3.55
2022-10-04T07:32:39.062Z,3.05
2022-10-04T07:35:16.875Z,3.20
2022-10-04T07:37:51.650Z,3.50
2022-10-04T07:40:26.277Z,3.33
2022-10-04T07:43:00.321Z,3.00
2022-10-04T07:45:37.636Z,4.25
2022-10-04T07:48:16.221Z,3.17
2022-10-04T07:50:59.777Z,3.40
2022-10-04T07:53:28.447Z,3.40
2022-10-04T07:55:58.809Z,3.75
2022-10-04T07:58:45.893Z,3.95
2022-10-04T08:01:15.168Z,3.72
2022-10-04T08:03:52.631Z,3.90
2022-10-04T08:06:35.071Z,3.25
2022-10-04T08:09:22.036Z,4.50
2022-10-04T08:11:50.745Z,4.40
2022-10-04T08:14:38.298Z,4.10
2022-10-04T08:17:15.595Z,3.35
2022-10-04T08:19:59.300Z,4.15
2022-10-04T08:22:33.088Z,4.50
2022-10-04T08:25:04.769Z,3.88
2022-10-04T08:28:08.361Z,3.10
2022-10-04T08:30:44.857Z,3.67
2022-10-04T08:33:32.188Z,3.10
2022-10-04T08:36:12.845Z,3.08
2022-10-04T08:38:48.307Z,3.05
2022-10-04T08:41:34.602Z,3.42
2022-10-04T08:44:28.340Z,2.50
2022-10-04T08:47:03.236Z,2.45
2022-10-04T08:49:51.198Z,2.58
2022-10-04T08:52:44.047Z,3.05
2022-10-04T08:55:35.101Z,3.00
2022-10-04T08:58:16.780Z,2.60
2022-10-04T09:00:53.610Z,3.17
2022-10-04T09:03:39.752Z,2.90
2022-10-04T09:06:17.044Z,2.03
2022-10-04T09:09:03.223Z,2.90
2022-10-04T09:11:31.183Z,2.83
2022-10-04T09:14:31.786Z,2.33
2022-10-04T09:17:08.388Z,2.45
2022-10-04T09:19:55.751Z,2.38
2022-10-04T09:22:43.547Z,2.90
2022-10-04T09:25:26.981Z,3.17
2022-10-04T09:28:13.278Z,2.47
2022-10-04T09:30:47.054Z,2.20
2022-10-04T09:33:35.724Z,3.95
2022-10-04T09:36:11.619Z,2.67
2022-10-04T09:38:45.376Z,1.70
2022-10-04T09:41:34.426Z,1.75
2022-10-04T09:44:20.449Z,1.90
2022-10-04T09:47:01.860Z,2.00
2022-10-04T09:49:44.448Z,2.92
2022-10-04T09:52:21.359Z,2.47
2022-10-04T09:54:49.735Z,2.67
2022-10-04T09:57:39.256Z,2.88
2022-10-04T10:00:13.370Z,2.20
2022-10-04T10:03:00.095Z,2.70
2022-10-04T10:05:32.841Z,2.80
2022-10-04T10:08:12.520Z,2.60
2022-10-04T10:10:59.061Z,2.40
2022-10-04T10:13:45.538Z,1.95
2022-10-04T10:16:22.706Z,2.00
2022-10-04T10:18:56.967Z,1.63
2022-10-04T10:21:30.860Z,1.65
2022-10-04T10:24:17.250Z,1.40
2022-10-04T10:26:50.445Z,1.45
2022-10-04T10:29:36.814Z,1.58
2022-10-04T10:32:10.988Z,1.80
2022-10-04T10:34:48.887Z,1.85
2022-10-04T10:37:16.723Z,1.85
2022-10-04T10:39:59.526Z,1.90
2022-10-04T10:42:46.355Z,1.90
2022-10-04T10:45:27.758Z,1.58
2022-10-04T10:48:22.111Z,1.88
2022-10-04T10:50:59.048Z,1.70
2022-10-04T10:53:48.139Z,1.85
2022-10-04T10:56:19.200Z,1.88
2022-10-04T10:58:55.497Z,2.70
2022-10-04T11:01:23.158Z,1.98
2022-10-04T11:04:09.641Z,2.05
2022-10-04T11:06:56.105Z,2.33
2022-10-04T11:09:42.731Z,1.80
2022-10-04T11:12:13.416Z,2.00
2022-10-04T11:14:56.288Z,1.73
2022-10-04T11:17:25.669Z,2.10
2022-10-04T11:20:24.821Z,1.90
2022-10-04T11:23:11.277Z,2.22
2022-10-04T11:25:57.840Z,2.03
2022-10-04T11:28:46.580Z,2.30
2022-10-04T11:31:34.122Z,1.65
2022-10-04T11:34:20.516Z,2.25
2022-10-04T11:36:51.361Z,1.77
2022-10-04T11:39:27.206Z,3.00
2022-10-04T11:41:57.390Z,1.10
2022-10-04T11:44:29.373Z,1.60
2022-10-04T11:47:13.623Z,1.60
2022-10-04T11:49:54.838Z,1.17
2022-10-04T11:55:20.453Z,19.60
2022-10-04T11:58:00.161Z,18.52
2022-10-04T12:00:33.999Z,2.10
2022-10-04T12:03:27.917Z,1.50
2022-10-04T12:06:04.562Z,1.20
2022-10-04T12:08:41.228Z,1.13
2022-10-04T12:11:25.327Z,1.15
2022-10-04T12:13:59.099Z,0.80
2022-10-04T12:16:29.669Z,0.55
2022-10-04T12:19:09.119Z,0.98
2022-10-04T12:21:47.854Z,0.70
2022-10-04T12:24:18.413Z,1.05
2022-10-04T12:27:05.091Z,1.30
2022-10-04T12:30:02.637Z,0.95
2022-10-04T12:32:39.077Z,1.05
2022-10-04T12:35:08.404Z,1.08
2022-10-04T12:37:53.831Z,0.93
2022-10-04T12:40:24.413Z,1.60
2022-10-04T12:42:53.104Z,1.10
2022-10-04T12:45:27.513Z,1.50
2022-10-04T12:47:59.106Z,1.45
2022-10-04T12:50:45.596Z,1.83
2022-10-04T12:53:32.121Z,1.10
2022-10-04T12:56:04.579Z,1.42
2022-10-04T12:58:38.379Z,1.23
2022-10-04T13:01:26.495Z,1.65
2022-10-04T13:03:55.028Z,1.27
2022-10-04T13:06:39.927Z,1.83
2022-10-04T13:09:21.418Z,1.55
2022-10-04T13:12:10.147Z,1.50
2022-10-04T13:14:56.689Z,1.50
2022-10-04T13:17:41.265Z,2.17
2022-10-04T13:20:15.054Z,5.55
2022-10-04T13:22:57.097Z,4.57
2022-10-04T13:25:34.242Z,1.45
2022-10-04T13:28:23.159Z,1.55
2022-10-04T13:30:51.195Z,3.42
2022-10-04T13:33:30.996Z,1.90
2022-10-04T13:36:07.214Z,1.83
2022-10-04T13:38:38.127Z,1.88
2022-10-04T13:41:11.857Z,2.08
2022-10-04T13:44:02.246Z,1.60
2022-10-04T13:46:39.196Z,2.50
2022-10-04T13:49:19.167Z,1.10
2022-10-04T13:52:09.848Z,1.35
2022-10-04T13:55:14.809Z,1.55
2022-10-04T13:57:56.397Z,2.00
2022-10-04T14:00:41.374Z,1.60
2022-10-04T14:03:28.769Z,1.23
2022-10-04T14:06:07.161Z,3.60
2022-10-04T14:08:48.364Z,4.35
2022-10-04T14:11:23.795Z,3.03
2022-10-04T14:14:01.773Z,1.70
2022-10-04T14:16:43.791Z,2.28
2022-10-04T14:19:24.218Z,2.10
2022-10-04T14:22:00.133Z,1.95
2022-10-04T14:24:47.042Z,2.03
2022-10-04T14:27:21.336Z,2.58
2022-10-04T14:29:56.291Z,2.20
2022-10-04T14:32:23.914Z,2.38
2022-10-04T14:34:56.887Z,3.08
2022-10-04T14:37:43.181Z,2.10
2022-10-04T14:40:29.911Z,2.78
2022-10-04T14:43:04.368Z,2.55
2022-10-04T14:45:32.940Z,1.60
2022-10-04T14:48:19.758Z,2.38
2022-10-04T14:50:57.789Z,2.25
2022-10-04T14:53:45.663Z,2.50
2022-10-04T14:56:26.211Z,12.88
2022-10-04T14:59:01.007Z,4.28
2022-10-04T15:01:29.363Z,2.72
2022-10-04T15:03:57.097Z,3.63
2022-10-04T15:06:48.454Z,3.47
2022-10-04T15:12:21.560Z,3.40
2022-10-04T15:15:00.164Z,3.40
2022-10-04T15:17:29.429Z,3.15
2022-10-04T15:20:03.483Z,2.80
2022-10-04T15:22:37.754Z,3.20
2022-10-04T15:25:25.480Z,3.00
2022-10-04T15:27:55.643Z,2.88
2022-10-04T15:30:23.465Z,3.15
2022-10-04T15:32:51.187Z,3.60
2022-10-04T15:35:27.780Z,3.75
2022-10-04T15:38:02.495Z,5.03
2022-10-04T15:40:33.349Z,4.15
2022-10-04T15:43:23.603Z,3.88
2022-10-04T15:45:53.890Z,3.97
2022-10-04T15:48:21.850Z,3.80
2022-10-04T15:51:03.909Z,3.85
2022-10-04T15:53:31.743Z,4.60
2022-10-04T15:55:59.425Z,5.90
2022-10-04T15:58:50.658Z,5.63
2022-10-04T16:01:27.854Z,7.10
2022-10-04T16:04:18.769Z,7.60
2022-10-04T16:06:51.031Z,6.78
2022-10-04T16:09:37.561Z,9.38
2022-10-04T16:12:29.374Z,10.60
2022-10-04T16:14:59.997Z,11.73
2022-10-04T16:17:46.617Z,21.37
2022-10-04T16:20:34.247Z,19.17
2022-10-04T16:23:21.819Z,14.55
2022-10-04T16:25:49.676Z,17.80
2022-10-04T16:28:31.048Z,13.80
2022-10-04T16:31:35.046Z,12.77
2022-10-04T16:34:08.674Z,11.10
2022-10-04T16:36:54.920Z,18.70
2022-10-04T16:39:52.555Z,33.22
2022-10-04T16:42:22.739Z,51.05
2022-10-04T16:44:50.478Z,57.63
2022-10-04T16:47:20.833Z,50.53
2022-10-04T16:49:50.874Z,19.98
2022-10-04T16:52:50.488Z,14.60
2022-10-04T16:55:20.078Z,14.55
2022-10-04T16:58:06.589Z,11.27
2022-10-04T17:00:38.234Z,9.25
2022-10-04T17:03:15.595Z,9.93
2022-10-04T17:05:48.652Z,25.17
2022-10-04T17:08:32.961Z,34.60
2022-10-04T17:11:14.557Z,65.40
2022-10-04T17:14:02.554Z,68.80
2022-10-04T17:16:48.915Z,47.15
2022-10-04T17:19:20.623Z,29.85
2022-10-04T17:22:07.126Z,24.48
2022-10-04T17:24:34.991Z,19.13
2022-10-04T17:27:21.571Z,14.32
2022-10-04T17:29:49.376Z,9.93
2022-10-04T17:32:27.383Z,10.70
2022-10-04T17:35:06.685Z,10.75
2022-10-04T17:37:50.370Z,10.73
2022-10-04T17:40:18.197Z,22.17
2022-10-04T17:43:05.959Z,23.23
2022-10-04T17:45:52.715Z,14.10
2022-10-04T17:48:49.920Z,12.00
2022-10-04T17:51:42.388Z,14.60
2022-10-04T17:57:05.791Z,13.95
2022-10-04T17:59:40.896Z,15.63
2022-10-04T18:02:17.421Z,20.20
2022-10-04T18:04:54.787Z,16.70
2022-10-04T18:07:28.112Z,15.35
2022-10-04T18:09:59.108Z,11.95
2022-10-04T18:12:35.451Z,13.20
2022-10-04T18:15:07.399Z,13.60
2022-10-04T18:17:43.256Z,22.95
2022-10-04T18:20:27.613Z,20.92
2022-10-04T18:22:58.398Z,16.83
2022-10-04T18:25:27.846Z,18.65
2022-10-04T18:28:08.178Z,21.95
2022-10-04T18:30:59.210Z,19.00
2022-10-04T18:33:31.206Z,15.52
2022-10-04T18:36:05.309Z,14.82
2022-10-04T18:38:34.875Z,14.63
2022-10-04T18:41:22.180Z,14.52
2022-10-04T18:43:58.730Z,14.98
2022-10-04T18:46:26.721Z,18.85
2022-10-04T18:49:12.943Z,21.50
2022-10-04T18:51:59.580Z,14.60
2022-10-04T18:54:40.823Z,12.52
2022-10-04T18:57:21.433Z,14.45
2022-10-04T19:00:17.730Z,16.13
2022-10-04T19:03:06.675Z,28.67
2022-10-04T19:05:52.737Z,24.23
2022-10-04T19:08:34.403Z,17.98
2022-10-04T19:11:40.737Z,20.30
2022-10-04T19:14:18.791Z,21.40
2022-10-04T19:16:51.806Z,19.23
2022-10-04T19:19:52.315Z,18.97
2022-10-04T19:22:23.241Z,15.10
2022-10-04T19:25:00.017Z,16.58
2022-10-04T19:27:30.966Z,12.05
2022-10-04T19:30:17.028Z,12.15
2022-10-04T19:33:04.547Z,12.05
2022-10-04T19:35:37.566Z,12.27
2022-10-04T19:38:25.465Z,11.27
2022-10-04T19:41:03.619Z,16.30
2022-10-04T19:43:42.333Z,37.42
2022-10-04T19:46:13.673Z,56.33
2022-10-04T19:48:53.966Z,39.03
2022-10-04T19:51:51.004Z,11.48
2022-10-04T19:54:21.421Z,10.68
2022-10-04T19:56:50.789Z,10.35
2022-10-04T19:59:22.027Z,11.02
2022-10-04T20:01:53.075Z,10.30
2022-10-04T20:04:35.927Z,8.60
2022-10-04T20:07:05.818Z,10.48
2022-10-04T20:09:51.399Z,12.27
2022-10-04T20:12:30.485Z,10.13
2022-10-04T20:15:25.205Z,13.52
2022-10-04T20:17:56.716Z,9.63
2022-10-04T20:20:39.940Z,10.63
2022-10-04T20:23:08.594Z,10.55
2022-10-04T20:25:49.315Z,10.50
2022-10-04T20:28:29.382Z,11.27
2022-10-04T20:30:58.434Z,17.02
2022-10-04T20:33:39.087Z,12.93
2022-10-04T20:36:12.118Z,12.85
2022-10-04T20:38:43.496Z,10.60
2022-10-04T20:41:50.310Z,10.68
2022-10-04T20:44:37.106Z,12.20
2022-10-04T20:47:05.302Z,14.93
2022-10-04T20:49:33.057Z,12.60
2022-10-04T20:52:00.764Z,12.00
2022-10-04T20:54:28.955Z,12.25
2022-10-04T20:56:56.891Z,10.82
2022-10-04T20:59:24.487Z,11.80
2022-10-04T21:02:04.161Z,10.68
2022-10-04T21:04:47.024Z,9.73
2022-10-04T21:07:18.811Z,8.40
2022-10-04T21:09:46.854Z,8.18
2022-10-04T21:12:38.712Z,8.75
2022-10-04T21:15:19.100Z,8.30
2022-10-04T21:18:03.901Z,7.88
2022-10-04T21:20:50.719Z,8.45
2022-10-04T21:23:21.062Z,9.82
2022-10-04T21:25:49.077Z,12.00
2022-10-04T21:28:24.037Z,20.25
2022-10-04T21:30:51.966Z,18.33
2022-10-04T21:33:19.629Z,18.67
2022-10-04T21:35:50.390Z,12.40
2022-10-04T21:38:18.177Z,13.98
2022-10-04T21:40:45.722Z,10.90
2022-10-04T21:43:13.374Z,10.35
2022-10-04T21:45:41.229Z,8.55
2022-10-04T21:48:08.927Z,9.35
2022-10-04T21:50:36.558Z,9.68
2022-10-04T21:53:04.480Z,10.88
2022-10-04T21:55:32.012Z,11.80
2022-10-04T21:57:59.658Z,10.82
2022-10-04T22:00:27.648Z,9.45
2022-10-04T22:02:55.282Z,14.15
2022-10-04T22:05:22.886Z,11.20
2022-10-04T22:07:50.702Z,10.18
2022-10-04T22:10:18.475Z,9.15
2022-10-04T22:12:46.758Z,9.20
2022-10-04T22:15:14.551Z,8.55
2022-10-04T22:17:42.180Z,9.25
2022-10-04T22:20:09.968Z,9.07
2022-10-04T22:22:40.002Z,11.35
2022-10-04T22:25:28.221Z,10.88
2022-10-04T22:27:56.142Z,10.07
2022-10-04T22:30:36.352Z,7.63
2022-10-04T22:33:04.407Z,9.77
2022-10-04T22:35:33.749Z,9.20
2022-10-04T22:38:01.548Z,11.20
2022-10-04T22:40:29.284Z,14.23
2022-10-04T22:42:59.075Z,10.07
2022-10-04T22:45:30.891Z,11.32
2022-10-04T22:48:00.089Z,11.45
2022-10-04T22:50:30.081Z,15.52
2022-10-04T22:52:57.760Z,11.73
2022-10-04T22:55:25.672Z,9.45
2022-10-04T22:57:53.520Z,8.93
2022-10-04T23:00:21.123Z,9.82
2022-10-04T23:02:49.493Z,9.88
2022-10-04T23:05:18.838Z,9.18
2022-10-04T23:07:47.411Z,9.45
2022-10-04T23:10:16.883Z,12.23
2022-10-04T23:12:49.014Z,12.77
2022-10-04T23:15:18.538Z,9.15
2022-10-04T23:17:47.215Z,10.25
2022-10-04T23:20:16.859Z,12.43
2022-10-04T23:22:50.460Z,9.50
2022-10-04T23:27:46.544Z,10.07
2022-10-04T23:30:15.931Z,11.30
2022-10-04T23:32:45.586Z,10.10
2022-10-04T23:35:32.734Z,10.25
2022-10-04T23:38:03.653Z,14.32
2022-10-04T23:40:31.557Z,10.48
2022-10-04T23:43:01.776Z,10.05
2022-10-04T23:45:29.629Z,13.25
2022-10-04T23:47:58.581Z,13.35
2022-10-04T23:50:27.882Z,13.52
2022-10-04T23:52:58.220Z,12.35
2022-10-04T23:55:28.295Z,12.02
2022-10-04T23:57:55.949Z,11.70
